sensor_id;sensor_type;location;lat;lon;timestamp;pressure;altitude;pressure_sealevel;temperature;humidity
64460;BME280;50828;53.756;21.140;2024-03-29T00:01:50;97899.63;;;8.31;66.28
64460;BME280;50828;53.756;21.140;2024-03-29T00:06:54;97903.10;;;8.28;66.21
64460;BME280;50828;53.756;21.140;2024-03-29T00:11:58;97909.13;;;8.27;66.31
64460;BME280;50828;53.756;21.140;2024-03-29T00:17:02;97904.67;;;8.26;66.44
64460;BME280;50828;53.756;21.140;2024-03-29T00:22:07;97904.85;;;8.26;66.81
64460;BME280;50828;53.756;21.140;2024-03-29T00:27:10;97910.63;;;8.29;67.89
64460;BME280;50828;53.756;21.140;2024-03-29T00:32:14;97923.77;;;8.32;68.51
64460;BME280;50828;53.756;21.140;2024-03-29T00:37:18;97927.89;;;8.36;68.06
64460;BME280;50828;53.756;21.140;2024-03-29T00:42:24;97928.90;;;8.39;68.47
64460;BME280;50828;53.756;21.140;2024-03-29T00:47:28;97931.16;;;8.42;67.91
64460;BME280;50828;53.756;21.140;2024-03-29T00:52:32;97941.47;;;8.46;67.86
64460;BME280;50828;53.756;21.140;2024-03-29T00:57:36;97963.81;;;8.48;67.84
64460;BME280;50828;53.756;21.140;2024-03-29T01:02:39;97977.02;;;8.50;68.04
64460;BME280;50828;53.756;21.140;2024-03-29T01:07:44;97981.13;;;8.51;67.87
64460;BME280;50828;53.756;21.140;2024-03-29T01:12:48;97983.77;;;8.54;67.45
64460;BME280;50828;53.756;21.140;2024-03-29T01:17:52;97985.14;;;8.56;67.12
64460;BME280;50828;53.756;21.140;2024-03-29T01:22:56;97992.59;;;8.58;67.21
64460;BME280;50828;53.756;21.140;2024-03-29T01:28:00;98011.25;;;8.60;66.75
64460;BME280;50828;53.756;21.140;2024-03-29T01:33:05;98027.30;;;8.61;67.02
64460;BME280;50828;53.756;21.140;2024-03-29T01:38:09;98038.30;;;8.62;66.85
64460;BME280;50828;53.756;21.140;2024-03-29T01:43:13;98039.80;;;8.63;66.79
64460;BME280;50828;53.756;21.140;2024-03-29T01:48:17;98054.73;;;8.66;66.99
64460;BME280;50828;53.756;21.140;2024-03-29T01:53:21;98059.00;;;8.68;67.06
64460;BME280;50828;53.756;21.140;2024-03-29T01:58:26;98069.54;;;8.70;66.86
64460;BME280;50828;53.756;21.140;2024-03-29T02:03:30;98079.06;;;8.72;66.82
64460;BME280;50828;53.756;21.140;2024-03-29T02:08:35;98086.50;;;8.74;66.47
64460;BME280;50828;53.756;21.140;2024-03-29T02:13:39;98105.09;;;8.77;66.24
64460;BME280;50828;53.756;21.140;2024-03-29T02:18:43;98115.13;;;8.79;66.53
64460;BME280;50828;53.756;21.140;2024-03-29T02:23:47;98112.85;;;8.81;66.57
64460;BME280;50828;53.756;21.140;2024-03-29T02:28:54;98103.96;;;8.84;66.44
64460;BME280;50828;53.756;21.140;2024-03-29T02:33:58;98113.67;;;8.85;66.01
64460;BME280;50828;53.756;21.140;2024-03-29T02:39:02;98132.48;;;8.87;65.84
64460;BME280;50828;53.756;21.140;2024-03-29T02:44:06;98141.89;;;8.89;65.83
64460;BME280;50828;53.756;21.140;2024-03-29T02:49:10;98154.96;;;8.90;65.80
64460;BME280;50828;53.756;21.140;2024-03-29T02:54:15;98161.79;;;8.90;65.58
64460;BME280;50828;53.756;21.140;2024-03-29T02:59:19;98169.95;;;8.92;65.61
64460;BME280;50828;53.756;21.140;2024-03-29T03:04:23;98179.36;;;8.93;65.18
64460;BME280;50828;53.756;21.140;2024-03-29T03:09:27;98190.42;;;8.93;65.27
64460;BME280;50828;53.756;21.140;2024-03-29T03:14:46;98199.55;;;8.93;65.04
64460;BME280;50828;53.756;21.140;2024-03-29T03:19:52;98205.00;;;8.93;64.92
64460;BME280;50828;53.756;21.140;2024-03-29T03:24:56;98218.19;;;8.92;65.21
64460;BME280;50828;53.756;21.140;2024-03-29T03:30:01;98237.00;;;8.92;64.82
64460;BME280;50828;53.756;21.140;2024-03-29T03:35:06;98252.10;;;8.92;64.84
64460;BME280;50828;53.756;21.140;2024-03-29T03:40:11;98265.52;;;8.91;64.47
64460;BME280;50828;53.756;21.140;2024-03-29T03:45:15;98269.35;;;8.89;64.20
64460;BME280;50828;53.756;21.140;2024-03-29T03:50:19;98278.99;;;8.86;63.97
64460;BME280;50828;53.756;21.140;2024-03-29T03:55:23;98287.77;;;8.83;63.80
64460;BME280;50828;53.756;21.140;2024-03-29T04:00:27;98294.47;;;8.80;63.55
64460;BME280;50828;53.756;21.140;2024-03-29T04:05:32;98301.86;;;8.76;63.26
64460;BME280;50828;53.756;21.140;2024-03-29T04:10:38;98311.13;;;8.74;63.12
64460;BME280;50828;53.756;21.140;2024-03-29T04:15:43;98322.11;;;8.72;63.10
64460;BME280;50828;53.756;21.140;2024-03-29T04:20:47;98332.60;;;8.70;62.93
64460;BME280;50828;53.756;21.140;2024-03-29T04:25:59;98343.34;;;8.67;63.07
64460;BME280;50828;53.756;21.140;2024-03-29T04:31:04;98353.49;;;8.64;62.57
64460;BME280;50828;53.756;21.140;2024-03-29T04:36:08;98363.88;;;8.60;62.78
64460;BME280;50828;53.756;21.140;2024-03-29T04:41:12;98376.02;;;8.57;62.54
64460;BME280;50828;53.756;21.140;2024-03-29T04:46:16;98384.12;;;8.54;62.29
64460;BME280;50828;53.756;21.140;2024-03-29T04:51:21;98394.85;;;8.50;62.49
64460;BME280;50828;53.756;21.140;2024-03-29T04:56:25;98404.91;;;8.46;62.58
64460;BME280;50828;53.756;21.140;2024-03-29T05:01:31;98411.89;;;8.44;62.28
64460;BME280;50828;53.756;21.140;2024-03-29T05:06:35;98414.31;;;8.41;62.15
64460;BME280;50828;53.756;21.140;2024-03-29T05:11:39;98417.11;;;8.38;62.31
64460;BME280;50828;53.756;21.140;2024-03-29T05:16:43;98414.53;;;8.37;62.47
64460;BME280;50828;53.756;21.140;2024-03-29T05:21:47;98417.42;;;8.36;62.45
64460;BME280;50828;53.756;21.140;2024-03-29T05:26:51;98416.95;;;8.35;62.44
64460;BME280;50828;53.756;21.140;2024-03-29T05:31:56;98424.27;;;8.35;62.40
64460;BME280;50828;53.756;21.140;2024-03-29T05:37:00;98433.00;;;8.42;62.34
64460;BME280;50828;53.756;21.140;2024-03-29T05:42:04;98438.11;;;8.49;62.42
64460;BME280;50828;53.756;21.140;2024-03-29T05:47:09;98446.81;;;8.52;62.43
64460;BME280;50828;53.756;21.140;2024-03-29T05:52:13;98453.52;;;8.55;61.98
64460;BME280;50828;53.756;21.140;2024-03-29T05:57:17;98460.08;;;8.60;62.03
64460;BME280;50828;53.756;21.140;2024-03-29T06:02:21;98460.86;;;8.68;62.24
64460;BME280;50828;53.756;21.140;2024-03-29T06:07:25;98455.50;;;8.75;61.94
64460;BME280;50828;53.756;21.140;2024-03-29T06:12:31;98454.41;;;8.82;61.93
64460;BME280;50828;53.756;21.140;2024-03-29T06:17:36;98452.27;;;8.86;61.67
64460;BME280;50828;53.756;21.140;2024-03-29T06:22:40;98455.08;;;8.89;61.63
64460;BME280;50828;53.756;21.140;2024-03-29T06:27:45;98460.37;;;8.94;61.58
64460;BME280;50828;53.756;21.140;2024-03-29T06:32:51;98461.46;;;9.02;61.49
64460;BME280;50828;53.756;21.140;2024-03-29T06:37:55;98466.15;;;9.12;61.00
64460;BME280;50828;53.756;21.140;2024-03-29T06:42:59;98466.41;;;9.22;60.68
64460;BME280;50828;53.756;21.140;2024-03-29T06:48:05;98475.70;;;9.31;60.52
64460;BME280;50828;53.756;21.140;2024-03-29T06:53:09;98483.20;;;9.41;60.24
64460;BME280;50828;53.756;21.140;2024-03-29T06:58:13;98489.84;;;9.53;60.15
64460;BME280;50828;53.756;21.140;2024-03-29T07:03:17;98488.31;;;9.66;60.32
64460;BME280;50828;53.756;21.140;2024-03-29T07:08:22;98484.62;;;9.86;60.80
64460;BME280;50828;53.756;21.140;2024-03-29T07:13:28;98487.67;;;10.15;60.13
64460;BME280;50828;53.756;21.140;2024-03-29T07:18:32;98500.45;;;10.41;58.90
64460;BME280;50828;53.756;21.140;2024-03-29T07:23:36;98504.13;;;10.58;59.19
64460;BME280;50828;53.756;21.140;2024-03-29T07:28:41;98511.25;;;10.73;57.70
64460;BME280;50828;53.756;21.140;2024-03-29T07:33:45;98511.59;;;10.86;57.51
64460;BME280;50828;53.756;21.140;2024-03-29T07:38:50;98514.73;;;11.08;58.05
64460;BME280;50828;53.756;21.140;2024-03-29T07:43:54;98522.59;;;11.32;57.89
64460;BME280;50828;53.756;21.140;2024-03-29T07:49:02;98526.55;;;11.54;57.33
64460;BME280;50828;53.756;21.140;2024-03-29T07:54:07;98539.48;;;11.76;57.68
64460;BME280;50828;53.756;21.140;2024-03-29T07:59:11;98548.18;;;12.06;56.91
64460;BME280;50828;53.756;21.140;2024-03-29T08:04:15;98551.41;;;12.35;55.80
64460;BME280;50828;53.756;21.140;2024-03-29T08:09:19;98563.13;;;12.63;55.71
64460;BME280;50828;53.756;21.140;2024-03-29T08:14:24;98570.34;;;12.85;55.38
64460;BME280;50828;53.756;21.140;2024-03-29T08:19:31;98580.65;;;12.99;53.74
64460;BME280;50828;53.756;21.140;2024-03-29T08:24:35;98585.27;;;13.06;53.86
64460;BME280;50828;53.756;21.140;2024-03-29T08:29:40;98586.90;;;13.14;54.16
64460;BME280;50828;53.756;21.140;2024-03-29T08:34:45;98592.00;;;13.27;53.13
64460;BME280;50828;53.756;21.140;2024-03-29T08:39:49;98596.67;;;13.35;52.50
64460;BME280;50828;53.756;21.140;2024-03-29T08:44:53;98590.98;;;13.38;51.75
64460;BME280;50828;53.756;21.140;2024-03-29T08:49:57;98592.00;;;13.36;51.32
64460;BME280;50828;53.756;21.140;2024-03-29T08:55:03;98593.67;;;13.35;50.67
64460;BME280;50828;53.756;21.140;2024-03-29T09:00:08;98592.69;;;13.39;50.98
64460;BME280;50828;53.756;21.140;2024-03-29T09:05:12;98589.52;;;13.39;50.66
64460;BME280;50828;53.756;21.140;2024-03-29T09:10:17;98589.33;;;13.39;51.31
64460;BME280;50828;53.756;21.140;2024-03-29T09:15:21;98607.09;;;13.43;51.01
64460;BME280;50828;53.756;21.140;2024-03-29T09:20:25;98611.88;;;13.43;49.73
64460;BME280;50828;53.756;21.140;2024-03-29T09:25:29;98615.84;;;13.42;49.03
64460;BME280;50828;53.756;21.140;2024-03-29T09:30:35;98621.20;;;13.41;48.87
64460;BME280;50828;53.756;21.140;2024-03-29T09:35:40;98625.06;;;13.41;49.44
64460;BME280;50828;53.756;21.140;2024-03-29T09:40:45;98633.85;;;13.42;50.31
64460;BME280;50828;53.756;21.140;2024-03-29T09:45:49;98640.46;;;13.46;49.15
64460;BME280;50828;53.756;21.140;2024-03-29T09:50:53;98647.15;;;13.46;48.82
64460;BME280;50828;53.756;21.140;2024-03-29T09:55:59;98646.54;;;13.45;49.46
64460;BME280;50828;53.756;21.140;2024-03-29T10:01:04;98653.70;;;13.49;48.52
64460;BME280;50828;53.756;21.140;2024-03-29T10:06:09;98655.39;;;13.52;47.75
64460;BME280;50828;53.756;21.140;2024-03-29T10:11:16;98659.64;;;13.56;47.76
64460;BME280;50828;53.756;21.140;2024-03-29T10:16:21;98653.54;;;13.60;46.19
64460;BME280;50828;53.756;21.140;2024-03-29T10:21:27;98652.16;;;13.64;46.75
64460;BME280;50828;53.756;21.140;2024-03-29T10:26:30;98647.20;;;13.67;46.68
64460;BME280;50828;53.756;21.140;2024-03-29T10:31:35;98651.98;;;13.73;47.08
64460;BME280;50828;53.756;21.140;2024-03-29T10:36:40;98664.29;;;13.77;45.88
64460;BME280;50828;53.756;21.140;2024-03-29T10:41:46;98675.38;;;13.75;46.00
64460;BME280;50828;53.756;21.140;2024-03-29T10:46:54;98683.23;;;13.72;46.82
64460;BME280;50828;53.756;21.140;2024-03-29T10:51:59;98690.85;;;13.70;47.50
64460;BME280;50828;53.756;21.140;2024-03-29T10:57:04;98693.92;;;13.75;47.02
64460;BME280;50828;53.756;21.140;2024-03-29T11:02:11;98695.69;;;13.87;46.54
64460;BME280;50828;53.756;21.140;2024-03-29T11:07:19;98688.45;;;13.99;46.39
64460;BME280;50828;53.756;21.140;2024-03-29T11:12:24;98695.47;;;14.13;46.05
64460;BME280;50828;53.756;21.140;2024-03-29T11:17:29;98692.72;;;14.26;45.00
64460;BME280;50828;53.756;21.140;2024-03-29T11:22:34;98701.29;;;14.37;45.52
64460;BME280;50828;53.756;21.140;2024-03-29T11:27:39;98711.80;;;14.45;45.21
64460;BME280;50828;53.756;21.140;2024-03-29T11:32:43;98715.27;;;14.53;45.72
64460;BME280;50828;53.756;21.140;2024-03-29T11:37:56;98710.96;;;14.58;44.77
64460;BME280;50828;53.756;21.140;2024-03-29T11:43:00;98702.19;;;14.62;45.31
64460;BME280;50828;53.756;21.140;2024-03-29T11:48:05;98702.19;;;14.68;44.98
64460;BME280;50828;53.756;21.140;2024-03-29T11:53:12;98706.33;;;14.76;44.65
64460;BME280;50828;53.756;21.140;2024-03-29T11:58:16;98720.90;;;14.83;43.66
64460;BME280;50828;53.756;21.140;2024-03-29T12:03:21;98723.60;;;14.87;42.52
64460;BME280;50828;53.756;21.140;2024-03-29T12:08:27;98722.00;;;14.86;43.51
64460;BME280;50828;53.756;21.140;2024-03-29T12:13:31;98730.80;;;14.90;43.08
64460;BME280;50828;53.756;21.140;2024-03-29T12:18:36;98745.45;;;14.97;43.09
64460;BME280;50828;53.756;21.140;2024-03-29T12:23:46;98732.89;;;15.01;42.13
64460;BME280;50828;53.756;21.140;2024-03-29T12:28:51;98728.16;;;15.00;41.75
64460;BME280;50828;53.756;21.140;2024-03-29T12:33:55;98732.73;;;14.99;41.76
64460;BME280;50828;53.756;21.140;2024-03-29T12:39:00;98730.92;;;15.01;43.36
64460;BME280;50828;53.756;21.140;2024-03-29T12:44:06;98732.42;;;15.07;43.04
64460;BME280;50828;53.756;21.140;2024-03-29T12:49:11;98735.52;;;15.10;42.77
64460;BME280;50828;53.756;21.140;2024-03-29T12:54:16;98732.64;;;15.13;44.34
64460;BME280;50828;53.756;21.140;2024-03-29T12:59:21;98730.77;;;15.17;44.58
64460;BME280;50828;53.756;21.140;2024-03-29T13:04:26;98733.63;;;15.25;43.40
64460;BME280;50828;53.756;21.140;2024-03-29T13:09:30;98736.27;;;15.34;43.45
64460;BME280;50828;53.756;21.140;2024-03-29T13:14:37;98740.73;;;15.42;44.23
64460;BME280;50828;53.756;21.140;2024-03-29T13:19:44;98754.15;;;15.54;43.87
64460;BME280;50828;53.756;21.140;2024-03-29T13:24:48;98761.19;;;15.66;43.25
64460;BME280;50828;53.756;21.140;2024-03-29T13:29:52;98769.21;;;15.74;42.40
64460;BME280;50828;53.756;21.140;2024-03-29T13:34:56;98765.96;;;15.79;41.61
64460;BME280;50828;53.756;21.140;2024-03-29T13:40:01;98770.08;;;15.83;41.36
64460;BME280;50828;53.756;21.140;2024-03-29T13:45:07;98778.86;;;15.86;41.25
64460;BME280;50828;53.756;21.140;2024-03-29T13:50:12;98771.54;;;15.89;41.84
64460;BME280;50828;53.756;21.140;2024-03-29T13:55:18;98774.30;;;15.90;41.68
64460;BME280;50828;53.756;21.140;2024-03-29T14:00:23;98772.48;;;15.88;41.71
64460;BME280;50828;53.756;21.140;2024-03-29T14:05:28;98767.95;;;15.89;40.68
64460;BME280;50828;53.756;21.140;2024-03-29T14:10:33;98774.55;;;15.91;40.15
64460;BME280;50828;53.756;21.140;2024-03-29T14:15:39;98771.33;;;15.94;41.47
64460;BME280;50828;53.756;21.140;2024-03-29T14:20:43;98768.60;;;15.99;41.59
64460;BME280;50828;53.756;21.140;2024-03-29T14:25:48;98765.52;;;16.02;41.41
64460;BME280;50828;53.756;21.140;2024-03-29T14:30:53;98771.10;;;16.05;40.16
64460;BME280;50828;53.756;21.140;2024-03-29T14:35:57;98771.11;;;16.07;39.85
64460;BME280;50828;53.756;21.140;2024-03-29T14:41:02;98783.64;;;16.08;39.76
64460;BME280;50828;53.756;21.140;2024-03-29T14:46:06;98789.36;;;16.10;40.80
64460;BME280;50828;53.756;21.140;2024-03-29T14:51:09;98795.69;;;16.12;40.84
64460;BME280;50828;53.756;21.140;2024-03-29T14:56:13;98800.50;;;16.16;41.17
64460;BME280;50828;53.756;21.140;2024-03-29T15:01:20;98806.20;;;16.21;39.41
64460;BME280;50828;53.756;21.140;2024-03-29T15:06:23;98813.02;;;16.22;38.79
64460;BME280;50828;53.756;21.140;2024-03-29T15:11:27;98807.39;;;16.19;39.51
64460;BME280;50828;53.756;21.140;2024-03-29T15:16:30;98800.05;;;16.11;38.14
64460;BME280;50828;53.756;21.140;2024-03-29T15:21:34;98791.76;;;16.02;39.62
64460;BME280;50828;53.756;21.140;2024-03-29T15:26:39;98795.21;;;15.92;39.39
64460;BME280;50828;53.756;21.140;2024-03-29T15:31:42;98812.98;;;15.84;40.15
64460;BME280;50828;53.756;21.140;2024-03-29T15:36:46;98803.34;;;15.76;40.78
64460;BME280;50828;53.756;21.140;2024-03-29T15:41:49;98804.45;;;15.68;40.65
64460;BME280;50828;53.756;21.140;2024-03-29T15:46:53;98804.56;;;15.63;40.10
64460;BME280;50828;53.756;21.140;2024-03-29T15:51:56;98800.23;;;15.55;40.66
64460;BME280;50828;53.756;21.140;2024-03-29T15:56:59;98793.11;;;15.51;41.06
64460;BME280;50828;53.756;21.140;2024-03-29T16:02:03;98790.82;;;15.46;42.21
64460;BME280;50828;53.756;21.140;2024-03-29T16:07:06;98802.15;;;15.42;42.34
64460;BME280;50828;53.756;21.140;2024-03-29T16:12:10;98790.98;;;15.35;42.52
64460;BME280;50828;53.756;21.140;2024-03-29T16:17:13;98784.77;;;15.29;42.76
64460;BME280;50828;53.756;21.140;2024-03-29T16:22:16;98791.94;;;15.21;42.90
64460;BME280;50828;53.756;21.140;2024-03-29T16:27:19;98789.73;;;15.13;42.77
64460;BME280;50828;53.756;21.140;2024-03-29T16:32:22;98780.23;;;15.06;43.17
64460;BME280;50828;53.756;21.140;2024-03-29T16:37:26;98781.42;;;15.00;43.18
64460;BME280;50828;53.756;21.140;2024-03-29T16:42:30;98787.73;;;14.92;43.39
64460;BME280;50828;53.756;21.140;2024-03-29T16:47:33;98793.52;;;14.83;43.65
64460;BME280;50828;53.756;21.140;2024-03-29T16:52:36;98788.92;;;14.74;43.89
64460;BME280;50828;53.756;21.140;2024-03-29T16:57:39;98779.66;;;14.63;44.40
64460;BME280;50828;53.756;21.140;2024-03-29T17:02:43;98783.88;;;14.52;45.00
64460;BME280;50828;53.756;21.140;2024-03-29T17:07:46;98774.73;;;14.39;45.41
64460;BME280;50828;53.756;21.140;2024-03-29T17:12:49;98769.77;;;14.25;45.95
64460;BME280;50828;53.756;21.140;2024-03-29T17:17:53;98787.32;;;14.11;45.89
64460;BME280;50828;53.756;21.140;2024-03-29T17:22:56;98783.29;;;13.94;46.04
64460;BME280;50828;53.756;21.140;2024-03-29T17:27:59;98782.64;;;13.75;46.41
64460;BME280;50828;53.756;21.140;2024-03-29T17:33:03;98773.77;;;13.53;46.54
64460;BME280;50828;53.756;21.140;2024-03-29T17:38:06;98768.80;;;13.31;47.10
64460;BME280;50828;53.756;21.140;2024-03-29T17:43:10;98775.31;;;13.10;47.43
64460;BME280;50828;53.756;21.140;2024-03-29T17:48:13;98787.98;;;12.88;47.83
64460;BME280;50828;53.756;21.140;2024-03-29T17:53:16;98788.48;;;12.68;48.11
64460;BME280;50828;53.756;21.140;2024-03-29T17:58:20;98797.98;;;12.48;48.16
64460;BME280;50828;53.756;21.140;2024-03-29T18:03:23;98795.30;;;12.31;48.38
64460;BME280;50828;53.756;21.140;2024-03-29T18:08:26;98786.16;;;12.14;48.75
64460;BME280;50828;53.756;21.140;2024-03-29T18:13:30;98790.05;;;12.02;49.31
64460;BME280;50828;53.756;21.140;2024-03-29T18:18:33;98788.96;;;11.90;49.93
64460;BME280;50828;53.756;21.140;2024-03-29T18:23:36;98799.96;;;11.82;50.16
64460;BME280;50828;53.756;21.140;2024-03-29T18:28:40;98797.80;;;11.74;50.40
64460;BME280;50828;53.756;21.140;2024-03-29T18:33:43;98795.00;;;11.69;50.42
64460;BME280;50828;53.756;21.140;2024-03-29T18:38:46;98803.69;;;11.65;50.74
64460;BME280;50828;53.756;21.140;2024-03-29T18:43:50;98810.30;;;11.64;51.03
64460;BME280;50828;53.756;21.140;2024-03-29T18:48:53;98798.97;;;11.64;51.12
64460;BME280;50828;53.756;21.140;2024-03-29T18:53:58;98773.72;;;11.65;51.28
64460;BME280;50828;53.756;21.140;2024-03-29T18:59:01;98752.17;;;11.66;51.56
64460;BME280;50828;53.756;21.140;2024-03-29T19:04:06;98758.17;;;11.66;51.39
64460;BME280;50828;53.756;21.140;2024-03-29T19:09:09;98783.39;;;11.65;51.50
64460;BME280;50828;53.756;21.140;2024-03-29T19:14:12;98788.64;;;11.71;51.38
64460;BME280;50828;53.756;21.140;2024-03-29T19:19:16;98785.86;;;11.76;51.05
64460;BME280;50828;53.756;21.140;2024-03-29T19:24:19;98780.26;;;11.81;51.15
64460;BME280;50828;53.756;21.140;2024-03-29T19:29:26;98779.77;;;11.85;50.76
64460;BME280;50828;53.756;21.140;2024-03-29T19:34:29;98784.98;;;11.89;50.94
64460;BME280;50828;53.756;21.140;2024-03-29T19:39:33;98785.67;;;11.93;50.62
64460;BME280;50828;53.756;21.140;2024-03-29T19:44:36;98792.99;;;11.97;50.45
64460;BME280;50828;53.756;21.140;2024-03-29T19:49:42;98801.17;;;12.01;50.30
64460;BME280;50828;53.756;21.140;2024-03-29T19:54:46;98810.77;;;12.06;50.27
64460;BME280;50828;53.756;21.140;2024-03-29T19:59:49;98796.23;;;12.09;49.97
64460;BME280;50828;53.756;21.140;2024-03-29T20:04:52;98791.98;;;12.12;50.17
64460;BME280;50828;53.756;21.140;2024-03-29T20:09:56;98795.27;;;12.16;50.07
64460;BME280;50828;53.756;21.140;2024-03-29T20:14:59;98792.77;;;12.18;49.55
64460;BME280;50828;53.756;21.140;2024-03-29T20:20:03;98782.84;;;12.22;49.48
64460;BME280;50828;53.756;21.140;2024-03-29T20:25:07;98788.23;;;12.25;49.39
64460;BME280;50828;53.756;21.140;2024-03-29T20:30:12;98791.16;;;12.29;49.50
64460;BME280;50828;53.756;21.140;2024-03-29T20:35:16;98782.75;;;12.34;49.44
64460;BME280;50828;53.756;21.140;2024-03-29T20:40:19;98794.34;;;12.37;49.21
64460;BME280;50828;53.756;21.140;2024-03-29T20:45:22;98792.92;;;12.40;49.26
64460;BME280;50828;53.756;21.140;2024-03-29T20:50:26;98793.42;;;12.43;48.91
64460;BME280;50828;53.756;21.140;2024-03-29T20:55:29;98784.30;;;12.44;48.87
64460;BME280;50828;53.756;21.140;2024-03-29T21:00:32;98773.91;;;12.46;48.77
64460;BME280;50828;53.756;21.140;2024-03-29T21:05:36;98760.93;;;12.48;48.78
64460;BME280;50828;53.756;21.140;2024-03-29T21:10:42;98755.80;;;12.51;48.78
64460;BME280;50828;53.756;21.140;2024-03-29T21:15:46;98745.96;;;12.53;48.58
64460;BME280;50828;53.756;21.140;2024-03-29T21:20:49;98748.43;;;12.55;48.44
64460;BME280;50828;53.756;21.140;2024-03-29T21:25:52;98758.66;;;12.58;48.56
64460;BME280;50828;53.756;21.140;2024-03-29T21:30:55;98760.22;;;12.61;48.48
64460;BME280;50828;53.756;21.140;2024-03-29T21:35:59;98767.30;;;12.63;48.50
64460;BME280;50828;53.756;21.140;2024-03-29T21:41:02;98770.51;;;12.65;48.27
64460;BME280;50828;53.756;21.140;2024-03-29T21:46:06;98774.30;;;12.66;48.13
64460;BME280;50828;53.756;21.140;2024-03-29T21:51:09;98778.59;;;12.68;47.93
64460;BME280;50828;53.756;21.140;2024-03-29T21:56:12;98769.84;;;12.70;47.93
64460;BME280;50828;53.756;21.140;2024-03-29T22:01:16;98764.40;;;12.71;47.96
64460;BME280;50828;53.756;21.140;2024-03-29T22:06:22;98763.31;;;12.75;47.85
64460;BME280;50828;53.756;21.140;2024-03-29T22:11:25;98760.92;;;12.76;47.67
64460;BME280;50828;53.756;21.140;2024-03-29T22:16:28;98772.89;;;12.77;47.82
64460;BME280;50828;53.756;21.140;2024-03-29T22:21:32;98776.13;;;12.78;47.63
64460;BME280;50828;53.756;21.140;2024-03-29T22:26:36;98779.75;;;12.79;47.38
64460;BME280;50828;53.756;21.140;2024-03-29T22:31:40;98787.27;;;12.80;47.41
64460;BME280;50828;53.756;21.140;2024-03-29T22:36:45;98790.55;;;12.82;47.24
64460;BME280;50828;53.756;21.140;2024-03-29T22:41:49;98782.48;;;12.83;47.14
64460;BME280;50828;53.756;21.140;2024-03-29T22:46:52;98777.10;;;12.84;47.10
64460;BME280;50828;53.756;21.140;2024-03-29T22:51:55;98766.44;;;12.85;46.97
64460;BME280;50828;53.756;21.140;2024-03-29T22:56:59;98767.77;;;12.87;47.02
64460;BME280;50828;53.756;21.140;2024-03-29T23:02:02;98766.79;;;12.88;46.82
64460;BME280;50828;53.756;21.140;2024-03-29T23:07:06;98769.30;;;12.90;46.89
64460;BME280;50828;53.756;21.140;2024-03-29T23:12:11;98763.29;;;12.90;46.72
64460;BME280;50828;53.756;21.140;2024-03-29T23:17:14;98748.77;;;12.90;46.79
64460;BME280;50828;53.756;21.140;2024-03-29T23:22:17;98741.19;;;12.90;46.56
64460;BME280;50828;53.756;21.140;2024-03-29T23:27:23;98738.80;;;12.89;46.50
64460;BME280;50828;53.756;21.140;2024-03-29T23:32:27;98743.45;;;12.88;46.25
64460;BME280;50828;53.756;21.140;2024-03-29T23:37:30;98745.89;;;12.86;46.20
64460;BME280;50828;53.756;21.140;2024-03-29T23:42:33;98745.48;;;12.84;46.28
64460;BME280;50828;53.756;21.140;2024-03-29T23:47:37;98754.57;;;12.81;45.99
64460;BME280;50828;53.756;21.140;2024-03-29T23:52:40;98754.08;;;12.78;46.20
64460;BME280;50828;53.756;21.140;2024-03-29T23:57:45;98744.54;;;12.76;45.99
